sensor_id;sensor_type;location;lat;lon;timestamp;P1;durP1;ratioP1;P2;durP2;ratioP2
75768;SDS011;64379;48.888;8.330;2022-12-01T18:22:57;26.95;;;13.98;;
75768;SDS011;64379;48.888;8.330;2022-12-01T18:25:23;21.67;;;8.90;;
75768;SDS011;64379;48.888;8.330;2022-12-01T18:27:48;20.23;;;8.55;;
75768;SDS011;64379;48.888;8.330;2022-12-01T18:30:17;19.80;;;8.35;;
75768;SDS011;64379;48.888;8.330;2022-12-01T18:32:43;21.15;;;9.00;;
75768;SDS011;64379;48.888;8.330;2022-12-01T18:35:11;18.83;;;9.13;;
75768;SDS011;64379;48.888;8.330;2022-12-01T18:37:39;19.42;;;8.77;;
75768;SDS011;64379;48.888;8.330;2022-12-01T18:40:07;21.52;;;8.35;;
75768;SDS011;64379;48.888;8.330;2022-12-01T18:42:43;17.80;;;7.80;;
75768;SDS011;64379;48.888;8.330;2022-12-01T18:45:19;20.25;;;8.48;;
75768;SDS011;64379;48.888;8.330;2022-12-01T18:47:48;20.67;;;8.20;;
75768;SDS011;64379;48.888;8.330;2022-12-01T18:50:13;20.65;;;8.57;;
75768;SDS011;64379;48.888;8.330;2022-12-01T18:52:45;20.80;;;8.93;;
75768;SDS011;64379;48.888;8.330;2022-12-01T18:55:13;20.80;;;8.27;;
75768;SDS011;64379;48.888;8.330;2022-12-01T18:57:41;16.90;;;8.00;;
75768;SDS011;64379;48.888;8.330;2022-12-01T19:00:09;21.00;;;8.65;;
75768;SDS011;64379;48.888;8.330;2022-12-01T19:02:35;18.90;;;8.70;;
75768;SDS011;64379;48.888;8.330;2022-12-01T19:05:10;20.17;;;8.85;;
75768;SDS011;64379;48.888;8.330;2022-12-01T19:07:38;20.52;;;8.70;;
75768;SDS011;64379;48.888;8.330;2022-12-01T19:10:04;21.52;;;9.00;;
75768;SDS011;64379;48.888;8.330;2022-12-01T19:12:30;21.58;;;8.77;;
75768;SDS011;64379;48.888;8.330;2022-12-01T19:14:56;19.88;;;9.05;;
75768;SDS011;64379;48.888;8.330;2022-12-01T19:17:28;19.83;;;8.10;;
75768;SDS011;64379;48.888;8.330;2022-12-01T19:19:55;19.42;;;9.02;;
75768;SDS011;64379;48.888;8.330;2022-12-01T19:22:23;18.90;;;8.18;;
75768;SDS011;64379;48.888;8.330;2022-12-01T19:24:49;20.40;;;8.68;;
75768;SDS011;64379;48.888;8.330;2022-12-01T19:27:15;20.88;;;9.13;;
75768;SDS011;64379;48.888;8.330;2022-12-01T19:29:42;21.85;;;8.73;;
75768;SDS011;64379;48.888;8.330;2022-12-01T19:32:07;21.27;;;8.98;;
75768;SDS011;64379;48.888;8.330;2022-12-01T19:34:33;19.33;;;8.63;;
75768;SDS011;64379;48.888;8.330;2022-12-01T19:36:59;18.38;;;8.05;;
75768;SDS011;64379;48.888;8.330;2022-12-01T19:39:24;19.15;;;8.05;;
75768;SDS011;64379;48.888;8.330;2022-12-01T19:41:50;17.88;;;7.75;;
75768;SDS011;64379;48.888;8.330;2022-12-01T19:44:15;19.52;;;8.45;;
75768;SDS011;64379;48.888;8.330;2022-12-01T19:46:41;19.90;;;8.80;;
75768;SDS011;64379;48.888;8.330;2022-12-01T19:49:08;20.55;;;8.68;;
75768;SDS011;64379;48.888;8.330;2022-12-01T19:51:34;18.23;;;8.18;;
75768;SDS011;64379;48.888;8.330;2022-12-01T19:54:02;19.60;;;8.20;;
75768;SDS011;64379;48.888;8.330;2022-12-01T19:56:29;18.95;;;8.05;;
75768;SDS011;64379;48.888;8.330;2022-12-01T19:58:55;18.00;;;8.10;;
75768;SDS011;64379;48.888;8.330;2022-12-01T20:01:21;21.30;;;8.98;;
75768;SDS011;64379;48.888;8.330;2022-12-01T20:03:48;23.13;;;8.75;;
75768;SDS011;64379;48.888;8.330;2022-12-01T20:06:15;18.98;;;8.45;;
75768;SDS011;64379;48.888;8.330;2022-12-01T20:08:43;24.55;;;9.50;;
75768;SDS011;64379;48.888;8.330;2022-12-01T20:11:09;18.35;;;8.20;;
75768;SDS011;64379;48.888;8.330;2022-12-01T20:13:36;21.50;;;8.30;;
75768;SDS011;64379;48.888;8.330;2022-12-01T20:16:04;19.10;;;8.45;;
75768;SDS011;64379;48.888;8.330;2022-12-01T20:18:32;20.30;;;8.77;;
75768;SDS011;64379;48.888;8.330;2022-12-01T20:21:05;19.85;;;9.00;;
75768;SDS011;64379;48.888;8.330;2022-12-01T20:23:31;19.08;;;8.13;;
75768;SDS011;64379;48.888;8.330;2022-12-01T20:25:57;21.92;;;8.60;;
75768;SDS011;64379;48.888;8.330;2022-12-01T20:28:24;18.70;;;8.23;;
75768;SDS011;64379;48.888;8.330;2022-12-01T20:30:50;19.63;;;8.75;;
75768;SDS011;64379;48.888;8.330;2022-12-01T20:33:15;22.25;;;9.90;;
75768;SDS011;64379;48.888;8.330;2022-12-01T20:35:42;20.35;;;8.15;;
75768;SDS011;64379;48.888;8.330;2022-12-01T20:38:07;22.33;;;9.48;;
75768;SDS011;64379;48.888;8.330;2022-12-01T20:43:31;22.42;;;9.38;;
75768;SDS011;64379;48.888;8.330;2022-12-01T20:45:58;19.42;;;8.38;;
75768;SDS011;64379;48.888;8.330;2022-12-01T20:48:24;21.20;;;8.80;;
75768;SDS011;64379;48.888;8.330;2022-12-01T20:50:49;25.80;;;8.82;;
75768;SDS011;64379;48.888;8.330;2022-12-01T20:53:15;20.45;;;8.77;;
75768;SDS011;64379;48.888;8.330;2022-12-01T20:55:41;22.73;;;10.02;;
75768;SDS011;64379;48.888;8.330;2022-12-01T20:58:06;22.63;;;8.65;;
75768;SDS011;64379;48.888;8.330;2022-12-01T21:00:33;21.58;;;8.68;;
75768;SDS011;64379;48.888;8.330;2022-12-01T21:02:59;23.23;;;9.32;;
75768;SDS011;64379;48.888;8.330;2022-12-01T21:05:25;21.73;;;8.70;;
75768;SDS011;64379;48.888;8.330;2022-12-01T21:07:51;20.25;;;8.77;;
75768;SDS011;64379;48.888;8.330;2022-12-01T21:10:17;21.00;;;8.73;;
75768;SDS011;64379;48.888;8.330;2022-12-01T21:12:44;22.30;;;9.27;;
75768;SDS011;64379;48.888;8.330;2022-12-01T21:15:40;21.15;;;9.02;;
75768;SDS011;64379;48.888;8.330;2022-12-01T21:18:28;20.02;;;8.68;;
75768;SDS011;64379;48.888;8.330;2022-12-01T21:21:01;24.85;;;10.05;;
75768;SDS011;64379;48.888;8.330;2022-12-01T21:23:32;21.35;;;9.38;;
75768;SDS011;64379;48.888;8.330;2022-12-01T21:25:58;21.10;;;9.30;;
75768;SDS011;64379;48.888;8.330;2022-12-01T21:28:24;25.63;;;10.90;;
75768;SDS011;64379;48.888;8.330;2022-12-01T21:31:12;24.27;;;9.40;;
75768;SDS011;64379;48.888;8.330;2022-12-01T21:33:38;25.17;;;10.93;;
75768;SDS011;64379;48.888;8.330;2022-12-01T21:36:11;24.67;;;9.88;;
75768;SDS011;64379;48.888;8.330;2022-12-01T21:38:53;22.23;;;10.07;;
75768;SDS011;64379;48.888;8.330;2022-12-01T21:41:26;22.30;;;9.65;;
75768;SDS011;64379;48.888;8.330;2022-12-01T21:43:54;23.65;;;10.25;;
75768;SDS011;64379;48.888;8.330;2022-12-01T21:46:25;24.83;;;9.55;;
75768;SDS011;64379;48.888;8.330;2022-12-01T21:48:51;21.77;;;9.82;;
75768;SDS011;64379;48.888;8.330;2022-12-01T21:51:17;25.58;;;9.88;;
75768;SDS011;64379;48.888;8.330;2022-12-01T21:53:47;25.83;;;10.23;;
75768;SDS011;64379;48.888;8.330;2022-12-01T21:56:15;28.15;;;10.68;;
75768;SDS011;64379;48.888;8.330;2022-12-01T21:58:46;23.17;;;9.85;;
75768;SDS011;64379;48.888;8.330;2022-12-01T22:01:18;29.00;;;11.13;;
75768;SDS011;64379;48.888;8.330;2022-12-01T22:03:50;29.27;;;11.75;;
75768;SDS011;64379;48.888;8.330;2022-12-01T22:09:13;24.25;;;10.20;;
75768;SDS011;64379;48.888;8.330;2022-12-01T22:11:41;29.60;;;10.98;;
75768;SDS011;64379;48.888;8.330;2022-12-01T22:16:43;29.70;;;11.57;;
75768;SDS011;64379;48.888;8.330;2022-12-01T22:21:44;29.73;;;11.13;;
75768;SDS011;64379;48.888;8.330;2022-12-01T22:26:42;31.88;;;12.75;;
75768;SDS011;64379;48.888;8.330;2022-12-01T22:31:49;32.72;;;11.85;;
75768;SDS011;64379;48.888;8.330;2022-12-01T22:34:16;29.38;;;11.40;;
75768;SDS011;64379;48.888;8.330;2022-12-01T22:36:44;30.75;;;12.05;;
75768;SDS011;64379;48.888;8.330;2022-12-01T22:39:19;30.27;;;11.98;;
75768;SDS011;64379;48.888;8.330;2022-12-01T22:41:50;30.42;;;11.98;;
75768;SDS011;64379;48.888;8.330;2022-12-01T22:44:28;33.97;;;12.50;;
75768;SDS011;64379;48.888;8.330;2022-12-01T22:46:57;30.20;;;11.60;;
75768;SDS011;64379;48.888;8.330;2022-12-01T22:49:26;29.10;;;11.07;;
75768;SDS011;64379;48.888;8.330;2022-12-01T22:52:05;33.47;;;12.20;;
75768;SDS011;64379;48.888;8.330;2022-12-01T22:54:46;30.30;;;11.35;;
75768;SDS011;64379;48.888;8.330;2022-12-01T22:57:24;30.75;;;11.80;;
75768;SDS011;64379;48.888;8.330;2022-12-01T22:59:53;30.83;;;12.20;;
75768;SDS011;64379;48.888;8.330;2022-12-01T23:02:20;30.45;;;11.70;;
75768;SDS011;64379;48.888;8.330;2022-12-01T23:12:34;27.98;;;10.40;;
75768;SDS011;64379;48.888;8.330;2022-12-01T23:20:56;29.35;;;12.27;;
75768;SDS011;64379;48.888;8.330;2022-12-01T23:23:30;31.67;;;11.77;;
75768;SDS011;64379;48.888;8.330;2022-12-01T23:25:57;32.47;;;12.30;;
75768;SDS011;64379;48.888;8.330;2022-12-01T23:28:25;30.02;;;11.43;;
75768;SDS011;64379;48.888;8.330;2022-12-01T23:30:51;30.48;;;11.82;;
75768;SDS011;64379;48.888;8.330;2022-12-01T23:33:21;33.67;;;12.45;;
75768;SDS011;64379;48.888;8.330;2022-12-01T23:38:42;35.95;;;12.27;;
75768;SDS011;64379;48.888;8.330;2022-12-01T23:41:15;36.10;;;12.70;;
75768;SDS011;64379;48.888;8.330;2022-12-01T23:43:43;34.60;;;13.63;;
75768;SDS011;64379;48.888;8.330;2022-12-01T23:46:11;34.55;;;12.45;;
75768;SDS011;64379;48.888;8.330;2022-12-01T23:48:41;34.25;;;12.25;;
75768;SDS011;64379;48.888;8.330;2022-12-01T23:51:34;35.30;;;12.85;;
75768;SDS011;64379;48.888;8.330;2022-12-01T23:56:30;34.45;;;12.20;;
75768;SDS011;64379;48.888;8.330;2022-12-01T23:58:56;35.83;;;13.48;;
